sensor_id;sensor_type;location;lat;lon;timestamp;P1;durP1;ratioP1;P2;durP2;ratioP2
13475;SDS011;6810;63.824;20.288;2023-04-09T00:02:44;0.40;;;0.40;;
13475;SDS011;6810;63.824;20.288;2023-04-09T00:05:31;0.63;;;0.30;;
13475;SDS011;6810;63.824;20.288;2023-04-09T00:08:18;0.73;;;0.30;;
13475;SDS011;6810;63.824;20.288;2023-04-09T00:11:05;0.70;;;0.40;;
13475;SDS011;6810;63.824;20.288;2023-04-09T00:13:52;0.60;;;0.40;;
13475;SDS011;6810;63.824;20.288;2023-04-09T00:16:38;0.60;;;0.30;;
13475;SDS011;6810;63.824;20.288;2023-04-09T00:19:25;0.30;;;0.10;;
13475;SDS011;6810;63.824;20.288;2023-04-09T00:22:13;1.80;;;0.30;;
13475;SDS011;6810;63.824;20.288;2023-04-09T00:25:00;0.97;;;0.20;;
13475;SDS011;6810;63.824;20.288;2023-04-09T00:27:47;0.20;;;0.20;;
13475;SDS011;6810;63.824;20.288;2023-04-09T00:30:34;0.23;;;0.20;;
13475;SDS011;6810;63.824;20.288;2023-04-09T00:33:21;0.47;;;0.47;;
13475;SDS011;6810;63.824;20.288;2023-04-09T00:36:08;1.33;;;0.30;;
13475;SDS011;6810;63.824;20.288;2023-04-09T00:38:54;0.20;;;0.20;;
13475;SDS011;6810;63.824;20.288;2023-04-09T00:41:41;0.50;;;0.30;;
13475;SDS011;6810;63.824;20.288;2023-04-09T00:44:29;1.13;;;0.23;;
13475;SDS011;6810;63.824;20.288;2023-04-09T00:47:16;0.27;;;0.20;;
13475;SDS011;6810;63.824;20.288;2023-04-09T00:50:04;0.93;;;0.20;;
13475;SDS011;6810;63.824;20.288;2023-04-09T00:52:51;0.30;;;0.30;;
13475;SDS011;6810;63.824;20.288;2023-04-09T00:55:39;0.30;;;0.27;;
13475;SDS011;6810;63.824;20.288;2023-04-09T00:58:26;0.73;;;0.20;;
13475;SDS011;6810;63.824;20.288;2023-04-09T01:01:13;0.60;;;0.13;;
13475;SDS011;6810;63.824;20.288;2023-04-09T01:04:00;0.30;;;0.13;;
13475;SDS011;6810;63.824;20.288;2023-04-09T01:06:49;0.33;;;0.27;;
13475;SDS011;6810;63.824;20.288;2023-04-09T01:09:42;1.20;;;0.20;;
13475;SDS011;6810;63.824;20.288;2023-04-09T01:16:09;1.13;;;0.30;;
13475;SDS011;6810;63.824;20.288;2023-04-09T01:19:05;0.40;;;0.20;;
13475;SDS011;6810;63.824;20.288;2023-04-09T01:21:56;0.10;;;0.10;;
13475;SDS011;6810;63.824;20.288;2023-04-09T01:24:56;0.60;;;0.20;;
13475;SDS011;6810;63.824;20.288;2023-04-09T01:31:08;0.13;;;0.10;;
13475;SDS011;6810;63.824;20.288;2023-04-09T01:33:58;0.23;;;0.20;;
13475;SDS011;6810;63.824;20.288;2023-04-09T01:36:51;0.13;;;0.10;;
13475;SDS011;6810;63.824;20.288;2023-04-09T01:39:42;0.27;;;0.20;;
13475;SDS011;6810;63.824;20.288;2023-04-09T01:42:30;0.20;;;0.20;;
13475;SDS011;6810;63.824;20.288;2023-04-09T01:45:18;0.40;;;0.10;;
13475;SDS011;6810;63.824;20.288;2023-04-09T01:48:06;0.20;;;0.10;;
13475;SDS011;6810;63.824;20.288;2023-04-09T01:50:54;0.40;;;0.10;;
13475;SDS011;6810;63.824;20.288;2023-04-09T01:53:41;0.10;;;0.10;;
13475;SDS011;6810;63.824;20.288;2023-04-09T01:56:41;0.20;;;0.10;;
13475;SDS011;6810;63.824;20.288;2023-04-09T01:59:28;0.00;;;0.00;;
13475;SDS011;6810;63.824;20.288;2023-04-09T02:02:19;0.00;;;0.00;;
13475;SDS011;6810;63.824;20.288;2023-04-09T02:05:20;0.17;;;0.17;;
13475;SDS011;6810;63.824;20.288;2023-04-09T02:08:12;0.00;;;0.00;;
13475;SDS011;6810;63.824;20.288;2023-04-09T02:11:04;0.10;;;0.00;;
13475;SDS011;6810;63.824;20.288;2023-04-09T02:13:56;0.57;;;0.10;;
13475;SDS011;6810;63.824;20.288;2023-04-09T02:17:06;0.00;;;0.00;;
13475;SDS011;6810;63.824;20.288;2023-04-09T02:19:53;0.20;;;0.10;;
13475;SDS011;6810;63.824;20.288;2023-04-09T02:22:40;0.00;;;0.00;;
13475;SDS011;6810;63.824;20.288;2023-04-09T02:25:27;0.30;;;0.10;;
13475;SDS011;6810;63.824;20.288;2023-04-09T02:28:15;0.00;;;0.00;;
13475;SDS011;6810;63.824;20.288;2023-04-09T02:31:02;0.00;;;0.00;;
13475;SDS011;6810;63.824;20.288;2023-04-09T02:33:49;0.00;;;0.00;;
13475;SDS011;6810;63.824;20.288;2023-04-09T02:36:36;0.10;;;0.00;;
13475;SDS011;6810;63.824;20.288;2023-04-09T02:39:23;0.00;;;0.00;;
13475;SDS011;6810;63.824;20.288;2023-04-09T02:42:10;0.00;;;0.00;;
13475;SDS011;6810;63.824;20.288;2023-04-09T02:44:57;0.00;;;0.00;;
13475;SDS011;6810;63.824;20.288;2023-04-09T02:47:44;0.00;;;0.00;;
13475;SDS011;6810;63.824;20.288;2023-04-09T02:50:33;0.30;;;0.00;;
13475;SDS011;6810;63.824;20.288;2023-04-09T02:53:20;0.07;;;0.07;;
13475;SDS011;6810;63.824;20.288;2023-04-09T02:56:07;0.10;;;0.00;;
13475;SDS011;6810;63.824;20.288;2023-04-09T02:58:54;0.00;;;0.00;;
13475;SDS011;6810;63.824;20.288;2023-04-09T03:01:41;0.20;;;0.10;;
13475;SDS011;6810;63.824;20.288;2023-04-09T03:04:28;0.00;;;0.00;;
13475;SDS011;6810;63.824;20.288;2023-04-09T03:07:15;0.20;;;0.10;;
13475;SDS011;6810;63.824;20.288;2023-04-09T03:10:02;0.03;;;0.00;;
13475;SDS011;6810;63.824;20.288;2023-04-09T03:12:49;0.00;;;0.00;;
13475;SDS011;6810;63.824;20.288;2023-04-09T03:15:36;0.00;;;0.00;;
13475;SDS011;6810;63.824;20.288;2023-04-09T03:18:23;0.00;;;0.00;;
13475;SDS011;6810;63.824;20.288;2023-04-09T03:21:10;0.20;;;0.10;;
13475;SDS011;6810;63.824;20.288;2023-04-09T03:23:57;0.07;;;0.00;;
13475;SDS011;6810;63.824;20.288;2023-04-09T03:26:45;0.10;;;0.10;;
13475;SDS011;6810;63.824;20.288;2023-04-09T03:29:32;0.43;;;0.10;;
13475;SDS011;6810;63.824;20.288;2023-04-09T03:32:20;0.20;;;0.03;;
13475;SDS011;6810;63.824;20.288;2023-04-09T03:35:10;0.00;;;0.00;;
13475;SDS011;6810;63.824;20.288;2023-04-09T03:37:59;0.17;;;0.00;;
13475;SDS011;6810;63.824;20.288;2023-04-09T03:40:46;0.10;;;0.10;;
13475;SDS011;6810;63.824;20.288;2023-04-09T03:43:33;0.00;;;0.00;;
13475;SDS011;6810;63.824;20.288;2023-04-09T03:46:24;0.67;;;0.10;;
13475;SDS011;6810;63.824;20.288;2023-04-09T03:49:14;0.40;;;0.20;;
13475;SDS011;6810;63.824;20.288;2023-04-09T03:52:11;0.50;;;0.10;;
13475;SDS011;6810;63.824;20.288;2023-04-09T03:55:04;0.63;;;0.17;;
13475;SDS011;6810;63.824;20.288;2023-04-09T03:57:52;1.07;;;0.23;;
13475;SDS011;6810;63.824;20.288;2023-04-09T04:00:39;0.10;;;0.10;;
13475;SDS011;6810;63.824;20.288;2023-04-09T04:03:35;0.83;;;0.00;;
13475;SDS011;6810;63.824;20.288;2023-04-09T04:06:24;0.07;;;0.00;;
13475;SDS011;6810;63.824;20.288;2023-04-09T04:09:23;0.00;;;0.00;;
13475;SDS011;6810;63.824;20.288;2023-04-09T04:12:14;0.03;;;0.03;;
13475;SDS011;6810;63.824;20.288;2023-04-09T04:15:07;0.40;;;0.10;;
13475;SDS011;6810;63.824;20.288;2023-04-09T04:17:55;0.20;;;0.10;;
13475;SDS011;6810;63.824;20.288;2023-04-09T04:20:46;0.37;;;0.07;;
13475;SDS011;6810;63.824;20.288;2023-04-09T04:23:33;0.30;;;0.00;;
13475;SDS011;6810;63.824;20.288;2023-04-09T04:26:24;0.07;;;0.00;;
13475;SDS011;6810;63.824;20.288;2023-04-09T04:29:14;0.10;;;0.10;;
13475;SDS011;6810;63.824;20.288;2023-04-09T04:32:02;0.30;;;0.10;;
13475;SDS011;6810;63.824;20.288;2023-04-09T04:34:51;0.00;;;0.00;;
13475;SDS011;6810;63.824;20.288;2023-04-09T04:37:39;0.10;;;0.10;;
13475;SDS011;6810;63.824;20.288;2023-04-09T04:40:27;0.77;;;0.10;;
13475;SDS011;6810;63.824;20.288;2023-04-09T04:43:15;0.00;;;0.00;;
13475;SDS011;6810;63.824;20.288;2023-04-09T04:46:02;0.50;;;0.30;;
13475;SDS011;6810;63.824;20.288;2023-04-09T04:48:50;0.33;;;0.10;;
13475;SDS011;6810;63.824;20.288;2023-04-09T04:51:44;0.43;;;0.00;;
13475;SDS011;6810;63.824;20.288;2023-04-09T04:54:32;0.20;;;0.13;;
13475;SDS011;6810;63.824;20.288;2023-04-09T04:57:21;0.10;;;0.10;;
13475;SDS011;6810;63.824;20.288;2023-04-09T05:00:09;0.10;;;0.07;;
13475;SDS011;6810;63.824;20.288;2023-04-09T05:02:37;0.10;;;0.00;;
13475;SDS011;6810;63.824;20.288;2023-04-09T05:05:33;0.00;;;0.00;;
13475;SDS011;6810;63.824;20.288;2023-04-09T05:08:00;0.10;;;0.00;;
13475;SDS011;6810;63.824;20.288;2023-04-09T05:10:27;0.10;;;0.10;;
13475;SDS011;6810;63.824;20.288;2023-04-09T05:12:56;0.10;;;0.10;;
13475;SDS011;6810;63.824;20.288;2023-04-09T05:15:36;0.00;;;0.00;;
13475;SDS011;6810;63.824;20.288;2023-04-09T05:18:05;0.27;;;0.10;;
13475;SDS011;6810;63.824;20.288;2023-04-09T05:20:34;0.13;;;0.00;;
13475;SDS011;6810;63.824;20.288;2023-04-09T05:23:08;0.10;;;0.10;;
13475;SDS011;6810;63.824;20.288;2023-04-09T05:25:41;0.07;;;0.07;;
13475;SDS011;6810;63.824;20.288;2023-04-09T05:28:15;0.00;;;0.00;;
13475;SDS011;6810;63.824;20.288;2023-04-09T05:30:45;0.30;;;0.10;;
13475;SDS011;6810;63.824;20.288;2023-04-09T05:33:14;0.10;;;0.10;;
13475;SDS011;6810;63.824;20.288;2023-04-09T05:35:42;0.10;;;0.10;;
13475;SDS011;6810;63.824;20.288;2023-04-09T05:38:09;0.30;;;0.10;;
13475;SDS011;6810;63.824;20.288;2023-04-09T05:40:37;0.63;;;0.20;;
13475;SDS011;6810;63.824;20.288;2023-04-09T05:43:10;0.07;;;0.00;;
13475;SDS011;6810;63.824;20.288;2023-04-09T05:45:41;0.40;;;0.10;;
13475;SDS011;6810;63.824;20.288;2023-04-09T05:48:08;0.50;;;0.33;;
13475;SDS011;6810;63.824;20.288;2023-04-09T05:50:36;0.33;;;0.10;;
13475;SDS011;6810;63.824;20.288;2023-04-09T05:53:22;0.23;;;0.10;;
13475;SDS011;6810;63.824;20.288;2023-04-09T05:55:49;0.10;;;0.10;;
13475;SDS011;6810;63.824;20.288;2023-04-09T05:58:19;0.20;;;0.10;;
13475;SDS011;6810;63.824;20.288;2023-04-09T06:00:47;0.13;;;0.10;;
13475;SDS011;6810;63.824;20.288;2023-04-09T06:03:14;0.20;;;0.10;;
13475;SDS011;6810;63.824;20.288;2023-04-09T06:05:43;0.00;;;0.00;;
13475;SDS011;6810;63.824;20.288;2023-04-09T06:08:11;0.43;;;0.17;;
13475;SDS011;6810;63.824;20.288;2023-04-09T06:10:39;0.20;;;0.10;;
13475;SDS011;6810;63.824;20.288;2023-04-09T06:13:07;0.20;;;0.10;;
13475;SDS011;6810;63.824;20.288;2023-04-09T06:15:36;1.63;;;0.57;;
13475;SDS011;6810;63.824;20.288;2023-04-09T06:18:04;0.67;;;0.30;;
13475;SDS011;6810;63.824;20.288;2023-04-09T06:20:32;0.20;;;0.10;;
13475;SDS011;6810;63.824;20.288;2023-04-09T06:22:59;1.30;;;0.40;;
13475;SDS011;6810;63.824;20.288;2023-04-09T06:25:26;1.07;;;0.20;;
13475;SDS011;6810;63.824;20.288;2023-04-09T06:27:53;0.20;;;0.20;;
13475;SDS011;6810;63.824;20.288;2023-04-09T06:30:20;0.53;;;0.10;;
13475;SDS011;6810;63.824;20.288;2023-04-09T06:32:49;0.10;;;0.10;;
13475;SDS011;6810;63.824;20.288;2023-04-09T06:35:21;0.23;;;0.20;;
13475;SDS011;6810;63.824;20.288;2023-04-09T06:37:48;0.77;;;0.20;;
13475;SDS011;6810;63.824;20.288;2023-04-09T06:40:15;0.20;;;0.20;;
13475;SDS011;6810;63.824;20.288;2023-04-09T06:42:43;1.87;;;0.20;;
13475;SDS011;6810;63.824;20.288;2023-04-09T06:45:21;0.73;;;0.20;;
13475;SDS011;6810;63.824;20.288;2023-04-09T06:47:48;0.40;;;0.30;;
13475;SDS011;6810;63.824;20.288;2023-04-09T06:50:15;0.20;;;0.10;;
13475;SDS011;6810;63.824;20.288;2023-04-09T06:52:42;0.23;;;0.20;;
13475;SDS011;6810;63.824;20.288;2023-04-09T06:55:09;0.20;;;0.20;;
13475;SDS011;6810;63.824;20.288;2023-04-09T06:57:37;0.33;;;0.27;;
13475;SDS011;6810;63.824;20.288;2023-04-09T07:00:05;0.40;;;0.30;;
13475;SDS011;6810;63.824;20.288;2023-04-09T07:02:32;0.67;;;0.23;;
13475;SDS011;6810;63.824;20.288;2023-04-09T07:05:00;0.63;;;0.30;;
13475;SDS011;6810;63.824;20.288;2023-04-09T07:07:27;1.43;;;0.20;;
13475;SDS011;6810;63.824;20.288;2023-04-09T07:09:54;0.10;;;0.10;;
13475;SDS011;6810;63.824;20.288;2023-04-09T07:12:28;0.10;;;0.10;;
13475;SDS011;6810;63.824;20.288;2023-04-09T07:15:01;0.30;;;0.20;;
13475;SDS011;6810;63.824;20.288;2023-04-09T07:17:30;2.33;;;0.20;;
13475;SDS011;6810;63.824;20.288;2023-04-09T07:19:58;0.20;;;0.10;;
13475;SDS011;6810;63.824;20.288;2023-04-09T07:22:27;0.33;;;0.20;;
13475;SDS011;6810;63.824;20.288;2023-04-09T07:24:55;0.20;;;0.20;;
13475;SDS011;6810;63.824;20.288;2023-04-09T07:27:23;0.30;;;0.10;;
13475;SDS011;6810;63.824;20.288;2023-04-09T07:29:57;0.50;;;0.40;;
13475;SDS011;6810;63.824;20.288;2023-04-09T07:32:25;0.30;;;0.20;;
13475;SDS011;6810;63.824;20.288;2023-04-09T07:34:56;1.13;;;0.30;;
13475;SDS011;6810;63.824;20.288;2023-04-09T07:37:24;0.87;;;0.20;;
13475;SDS011;6810;63.824;20.288;2023-04-09T07:39:52;0.50;;;0.37;;
13475;SDS011;6810;63.824;20.288;2023-04-09T07:42:19;0.20;;;0.20;;
13475;SDS011;6810;63.824;20.288;2023-04-09T07:44:47;0.30;;;0.30;;
13475;SDS011;6810;63.824;20.288;2023-04-09T07:47:14;0.20;;;0.20;;
13475;SDS011;6810;63.824;20.288;2023-04-09T07:49:42;0.20;;;0.20;;
13475;SDS011;6810;63.824;20.288;2023-04-09T07:52:09;0.27;;;0.23;;
13475;SDS011;6810;63.824;20.288;2023-04-09T07:54:36;0.40;;;0.20;;
13475;SDS011;6810;63.824;20.288;2023-04-09T07:57:03;0.53;;;0.40;;
13475;SDS011;6810;63.824;20.288;2023-04-09T07:59:30;0.90;;;0.50;;
13475;SDS011;6810;63.824;20.288;2023-04-09T08:01:57;1.37;;;0.40;;
13475;SDS011;6810;63.824;20.288;2023-04-09T08:04:25;1.23;;;0.30;;
13475;SDS011;6810;63.824;20.288;2023-04-09T08:06:53;0.50;;;0.30;;
13475;SDS011;6810;63.824;20.288;2023-04-09T08:09:20;0.30;;;0.30;;
13475;SDS011;6810;63.824;20.288;2023-04-09T08:11:47;0.57;;;0.30;;
13475;SDS011;6810;63.824;20.288;2023-04-09T08:14:15;1.47;;;0.43;;
13475;SDS011;6810;63.824;20.288;2023-04-09T08:16:43;0.73;;;0.50;;
13475;SDS011;6810;63.824;20.288;2023-04-09T08:19:12;1.20;;;0.30;;
13475;SDS011;6810;63.824;20.288;2023-04-09T08:21:42;0.50;;;0.50;;
13475;SDS011;6810;63.824;20.288;2023-04-09T08:24:09;0.50;;;0.50;;
13475;SDS011;6810;63.824;20.288;2023-04-09T08:26:38;0.20;;;0.20;;
13475;SDS011;6810;63.824;20.288;2023-04-09T08:29:06;0.43;;;0.43;;
13475;SDS011;6810;63.824;20.288;2023-04-09T08:31:34;0.10;;;0.10;;
13475;SDS011;6810;63.824;20.288;2023-04-09T08:34:05;0.30;;;0.30;;
13475;SDS011;6810;63.824;20.288;2023-04-09T08:36:32;0.73;;;0.30;;
13475;SDS011;6810;63.824;20.288;2023-04-09T08:39:01;0.70;;;0.30;;
13475;SDS011;6810;63.824;20.288;2023-04-09T08:41:29;0.30;;;0.30;;
13475;SDS011;6810;63.824;20.288;2023-04-09T08:43:56;1.70;;;0.40;;
13475;SDS011;6810;63.824;20.288;2023-04-09T08:46:25;0.77;;;0.40;;
13475;SDS011;6810;63.824;20.288;2023-04-09T08:48:53;0.77;;;0.50;;
13475;SDS011;6810;63.824;20.288;2023-04-09T08:51:21;0.77;;;0.47;;
13475;SDS011;6810;63.824;20.288;2023-04-09T08:53:56;1.17;;;0.60;;
13475;SDS011;6810;63.824;20.288;2023-04-09T08:56:29;0.40;;;0.40;;
13475;SDS011;6810;63.824;20.288;2023-04-09T08:58:56;1.00;;;0.70;;
13475;SDS011;6810;63.824;20.288;2023-04-09T09:01:25;0.47;;;0.30;;
13475;SDS011;6810;63.824;20.288;2023-04-09T09:06:31;1.00;;;0.43;;
13475;SDS011;6810;63.824;20.288;2023-04-09T09:11:38;0.80;;;0.70;;
13475;SDS011;6810;63.824;20.288;2023-04-09T09:14:09;1.33;;;0.73;;
13475;SDS011;6810;63.824;20.288;2023-04-09T09:16:39;0.60;;;0.60;;
13475;SDS011;6810;63.824;20.288;2023-04-09T09:19:44;2.27;;;0.67;;
13475;SDS011;6810;63.824;20.288;2023-04-09T09:22:04;3.93;;;0.80;;
13475;SDS011;6810;63.824;20.288;2023-04-09T09:24:33;1.20;;;0.70;;
13475;SDS011;6810;63.824;20.288;2023-04-09T09:27:34;2.00;;;1.00;;
13475;SDS011;6810;63.824;20.288;2023-04-09T09:30:02;1.60;;;0.80;;
13475;SDS011;6810;63.824;20.288;2023-04-09T09:32:34;0.73;;;0.70;;
13475;SDS011;6810;63.824;20.288;2023-04-09T09:35:04;1.50;;;1.10;;
13475;SDS011;6810;63.824;20.288;2023-04-09T09:37:32;0.80;;;0.63;;
13475;SDS011;6810;63.824;20.288;2023-04-09T09:40:00;1.13;;;0.73;;
13475;SDS011;6810;63.824;20.288;2023-04-09T09:42:27;1.17;;;0.90;;
13475;SDS011;6810;63.824;20.288;2023-04-09T09:44:54;1.50;;;0.70;;
13475;SDS011;6810;63.824;20.288;2023-04-09T09:47:22;1.77;;;0.80;;
13475;SDS011;6810;63.824;20.288;2023-04-09T09:49:51;1.00;;;0.90;;
13475;SDS011;6810;63.824;20.288;2023-04-09T09:52:19;0.93;;;0.70;;
13475;SDS011;6810;63.824;20.288;2023-04-09T09:54:51;1.37;;;0.90;;
13475;SDS011;6810;63.824;20.288;2023-04-09T09:57:20;0.80;;;0.80;;
13475;SDS011;6810;63.824;20.288;2023-04-09T09:59:53;0.97;;;0.80;;
13475;SDS011;6810;63.824;20.288;2023-04-09T10:02:24;1.97;;;1.00;;
13475;SDS011;6810;63.824;20.288;2023-04-09T10:04:59;2.73;;;1.10;;
13475;SDS011;6810;63.824;20.288;2023-04-09T10:07:27;1.50;;;0.90;;
13475;SDS011;6810;63.824;20.288;2023-04-09T10:09:55;1.00;;;0.90;;
13475;SDS011;6810;63.824;20.288;2023-04-09T10:12:22;2.13;;;1.00;;
13475;SDS011;6810;63.824;20.288;2023-04-09T10:14:51;2.40;;;1.27;;
13475;SDS011;6810;63.824;20.288;2023-04-09T10:17:21;2.20;;;1.07;;
13475;SDS011;6810;63.824;20.288;2023-04-09T10:20:09;1.80;;;1.10;;
13475;SDS011;6810;63.824;20.288;2023-04-09T10:22:40;1.70;;;0.90;;
13475;SDS011;6810;63.824;20.288;2023-04-09T10:25:14;0.97;;;0.90;;
13475;SDS011;6810;63.824;20.288;2023-04-09T10:27:42;2.17;;;1.13;;
13475;SDS011;6810;63.824;20.288;2023-04-09T10:30:30;2.50;;;0.90;;
13475;SDS011;6810;63.824;20.288;2023-04-09T10:33:08;2.10;;;1.00;;
13475;SDS011;6810;63.824;20.288;2023-04-09T10:35:36;1.10;;;1.00;;
13475;SDS011;6810;63.824;20.288;2023-04-09T10:38:07;1.97;;;1.30;;
13475;SDS011;6810;63.824;20.288;2023-04-09T10:40:48;1.17;;;1.00;;
13475;SDS011;6810;63.824;20.288;2023-04-09T10:43:19;1.23;;;1.00;;
13475;SDS011;6810;63.824;20.288;2023-04-09T10:45:47;1.00;;;0.97;;
13475;SDS011;6810;63.824;20.288;2023-04-09T10:48:19;1.33;;;1.13;;
13475;SDS011;6810;63.824;20.288;2023-04-09T10:50:49;1.37;;;0.90;;
13475;SDS011;6810;63.824;20.288;2023-04-09T10:53:20;1.20;;;1.03;;
13475;SDS011;6810;63.824;20.288;2023-04-09T10:55:51;1.83;;;1.00;;
13475;SDS011;6810;63.824;20.288;2023-04-09T10:58:19;1.73;;;1.10;;
13475;SDS011;6810;63.824;20.288;2023-04-09T11:00:47;0.80;;;0.80;;
13475;SDS011;6810;63.824;20.288;2023-04-09T11:03:19;1.23;;;0.80;;
13475;SDS011;6810;63.824;20.288;2023-04-09T11:06:13;0.97;;;0.90;;
13475;SDS011;6810;63.824;20.288;2023-04-09T11:08:36;1.20;;;0.87;;
13475;SDS011;6810;63.824;20.288;2023-04-09T11:11:04;1.97;;;0.90;;
13475;SDS011;6810;63.824;20.288;2023-04-09T11:13:31;0.90;;;0.90;;
13475;SDS011;6810;63.824;20.288;2023-04-09T11:16:00;1.10;;;0.90;;
13475;SDS011;6810;63.824;20.288;2023-04-09T11:18:29;1.20;;;0.80;;
13475;SDS011;6810;63.824;20.288;2023-04-09T11:21:00;1.20;;;0.70;;
13475;SDS011;6810;63.824;20.288;2023-04-09T11:23:30;1.10;;;1.00;;
13475;SDS011;6810;63.824;20.288;2023-04-09T11:25:58;1.10;;;0.93;;
13475;SDS011;6810;63.824;20.288;2023-04-09T11:28:25;1.63;;;0.90;;
13475;SDS011;6810;63.824;20.288;2023-04-09T11:30:52;1.33;;;0.90;;
13475;SDS011;6810;63.824;20.288;2023-04-09T11:33:19;1.70;;;0.90;;
13475;SDS011;6810;63.824;20.288;2023-04-09T11:35:47;1.80;;;0.70;;
13475;SDS011;6810;63.824;20.288;2023-04-09T11:38:14;1.73;;;0.90;;
13475;SDS011;6810;63.824;20.288;2023-04-09T11:40:47;0.80;;;0.80;;
13475;SDS011;6810;63.824;20.288;2023-04-09T11:43:15;1.57;;;0.77;;
13475;SDS011;6810;63.824;20.288;2023-04-09T11:45:43;1.53;;;0.60;;
13475;SDS011;6810;63.824;20.288;2023-04-09T11:48:14;0.80;;;0.77;;
13475;SDS011;6810;63.824;20.288;2023-04-09T11:50:44;0.53;;;0.50;;
13475;SDS011;6810;63.824;20.288;2023-04-09T11:53:15;1.50;;;0.90;;
13475;SDS011;6810;63.824;20.288;2023-04-09T11:55:46;2.73;;;0.80;;
13475;SDS011;6810;63.824;20.288;2023-04-09T11:58:16;1.33;;;0.80;;
13475;SDS011;6810;63.824;20.288;2023-04-09T12:00:43;1.70;;;0.83;;
13475;SDS011;6810;63.824;20.288;2023-04-09T12:03:11;1.33;;;0.83;;
13475;SDS011;6810;63.824;20.288;2023-04-09T12:05:39;1.93;;;1.13;;
13475;SDS011;6810;63.824;20.288;2023-04-09T12:08:16;2.07;;;0.87;;
13475;SDS011;6810;63.824;20.288;2023-04-09T12:10:49;2.73;;;0.80;;
13475;SDS011;6810;63.824;20.288;2023-04-09T12:13:19;0.90;;;0.90;;
13475;SDS011;6810;63.824;20.288;2023-04-09T12:15:47;1.23;;;0.93;;
13475;SDS011;6810;63.824;20.288;2023-04-09T12:18:15;1.27;;;1.00;;
13475;SDS011;6810;63.824;20.288;2023-04-09T12:20:43;1.30;;;0.70;;
13475;SDS011;6810;63.824;20.288;2023-04-09T12:23:13;1.00;;;0.83;;
13475;SDS011;6810;63.824;20.288;2023-04-09T12:25:43;0.60;;;0.60;;
13475;SDS011;6810;63.824;20.288;2023-04-09T12:28:11;1.60;;;0.60;;
13475;SDS011;6810;63.824;20.288;2023-04-09T12:30:41;0.90;;;0.60;;
13475;SDS011;6810;63.824;20.288;2023-04-09T12:33:08;0.90;;;0.60;;
13475;SDS011;6810;63.824;20.288;2023-04-09T12:35:37;0.97;;;0.80;;
13475;SDS011;6810;63.824;20.288;2023-04-09T12:38:04;1.17;;;0.77;;
13475;SDS011;6810;63.824;20.288;2023-04-09T12:40:31;1.50;;;0.60;;
13475;SDS011;6810;63.824;20.288;2023-04-09T12:42:59;1.30;;;1.20;;
13475;SDS011;6810;63.824;20.288;2023-04-09T12:45:27;1.17;;;0.90;;
13475;SDS011;6810;63.824;20.288;2023-04-09T12:47:55;0.90;;;0.90;;
13475;SDS011;6810;63.824;20.288;2023-04-09T12:50:22;0.93;;;0.87;;
13475;SDS011;6810;63.824;20.288;2023-04-09T12:52:49;1.37;;;0.90;;
13475;SDS011;6810;63.824;20.288;2023-04-09T12:55:17;0.80;;;0.80;;
13475;SDS011;6810;63.824;20.288;2023-04-09T12:57:44;1.13;;;0.97;;
13475;SDS011;6810;63.824;20.288;2023-04-09T13:00:14;1.90;;;0.87;;
13475;SDS011;6810;63.824;20.288;2023-04-09T13:02:41;1.60;;;0.90;;
13475;SDS011;6810;63.824;20.288;2023-04-09T13:05:09;0.90;;;0.80;;
13475;SDS011;6810;63.824;20.288;2023-04-09T13:07:36;0.73;;;0.73;;
13475;SDS011;6810;63.824;20.288;2023-04-09T13:10:03;1.43;;;0.80;;
13475;SDS011;6810;63.824;20.288;2023-04-09T13:12:31;2.93;;;0.70;;
13475;SDS011;6810;63.824;20.288;2023-04-09T13:14:58;1.10;;;0.90;;
13475;SDS011;6810;63.824;20.288;2023-04-09T13:17:25;1.00;;;0.70;;
13475;SDS011;6810;63.824;20.288;2023-04-09T13:19:52;0.90;;;0.90;;
13475;SDS011;6810;63.824;20.288;2023-04-09T13:22:19;3.00;;;0.93;;
13475;SDS011;6810;63.824;20.288;2023-04-09T13:24:46;1.53;;;0.90;;
13475;SDS011;6810;63.824;20.288;2023-04-09T13:27:14;1.17;;;0.83;;
13475;SDS011;6810;63.824;20.288;2023-04-09T13:29:42;1.27;;;0.73;;
13475;SDS011;6810;63.824;20.288;2023-04-09T13:32:09;0.70;;;0.70;;
13475;SDS011;6810;63.824;20.288;2023-04-09T13:34:37;2.00;;;0.73;;
13475;SDS011;6810;63.824;20.288;2023-04-09T13:37:05;1.10;;;1.00;;
13475;SDS011;6810;63.824;20.288;2023-04-09T13:39:32;0.90;;;0.70;;
13475;SDS011;6810;63.824;20.288;2023-04-09T13:41:59;1.20;;;0.83;;
13475;SDS011;6810;63.824;20.288;2023-04-09T13:44:35;1.47;;;1.00;;
13475;SDS011;6810;63.824;20.288;2023-04-09T13:47:02;1.27;;;0.87;;
13475;SDS011;6810;63.824;20.288;2023-04-09T13:49:29;1.07;;;0.70;;
13475;SDS011;6810;63.824;20.288;2023-04-09T13:51:59;2.60;;;0.93;;
13475;SDS011;6810;63.824;20.288;2023-04-09T13:54:26;2.77;;;0.70;;
13475;SDS011;6810;63.824;20.288;2023-04-09T13:56:53;0.93;;;0.87;;
13475;SDS011;6810;63.824;20.288;2023-04-09T13:59:20;0.90;;;0.90;;
13475;SDS011;6810;63.824;20.288;2023-04-09T14:01:47;1.37;;;0.97;;
13475;SDS011;6810;63.824;20.288;2023-04-09T14:04:14;2.53;;;1.00;;
13475;SDS011;6810;63.824;20.288;2023-04-09T14:06:42;1.00;;;0.77;;
13475;SDS011;6810;63.824;20.288;2023-04-09T14:09:10;1.00;;;0.90;;
13475;SDS011;6810;63.824;20.288;2023-04-09T14:11:37;1.40;;;0.70;;
13475;SDS011;6810;63.824;20.288;2023-04-09T14:14:04;0.60;;;0.60;;
13475;SDS011;6810;63.824;20.288;2023-04-09T14:16:31;2.57;;;1.10;;
13475;SDS011;6810;63.824;20.288;2023-04-09T14:18:59;0.97;;;0.80;;
13475;SDS011;6810;63.824;20.288;2023-04-09T14:21:26;0.80;;;0.80;;
13475;SDS011;6810;63.824;20.288;2023-04-09T14:23:53;1.73;;;1.13;;
13475;SDS011;6810;63.824;20.288;2023-04-09T14:26:20;0.70;;;0.70;;
13475;SDS011;6810;63.824;20.288;2023-04-09T14:28:49;1.27;;;0.80;;
13475;SDS011;6810;63.824;20.288;2023-04-09T14:31:17;1.13;;;0.80;;
13475;SDS011;6810;63.824;20.288;2023-04-09T14:33:47;0.90;;;0.90;;
13475;SDS011;6810;63.824;20.288;2023-04-09T14:36:14;0.90;;;0.73;;
13475;SDS011;6810;63.824;20.288;2023-04-09T14:38:42;0.90;;;0.80;;
13475;SDS011;6810;63.824;20.288;2023-04-09T14:41:09;1.33;;;1.10;;
13475;SDS011;6810;63.824;20.288;2023-04-09T14:43:36;1.27;;;1.17;;
13475;SDS011;6810;63.824;20.288;2023-04-09T14:46:03;0.83;;;0.80;;
13475;SDS011;6810;63.824;20.288;2023-04-09T14:48:32;1.87;;;0.70;;
13475;SDS011;6810;63.824;20.288;2023-04-09T14:50:59;1.47;;;0.90;;
13475;SDS011;6810;63.824;20.288;2023-04-09T14:53:26;1.60;;;1.00;;
13475;SDS011;6810;63.824;20.288;2023-04-09T14:55:53;0.80;;;0.80;;
13475;SDS011;6810;63.824;20.288;2023-04-09T14:58:20;1.77;;;0.83;;
13475;SDS011;6810;63.824;20.288;2023-04-09T15:00:48;1.37;;;0.80;;
13475;SDS011;6810;63.824;20.288;2023-04-09T15:03:15;1.90;;;0.80;;
13475;SDS011;6810;63.824;20.288;2023-04-09T15:05:43;1.23;;;0.70;;
13475;SDS011;6810;63.824;20.288;2023-04-09T15:08:11;1.63;;;0.80;;
13475;SDS011;6810;63.824;20.288;2023-04-09T15:10:38;1.10;;;0.80;;
13475;SDS011;6810;63.824;20.288;2023-04-09T15:13:05;1.00;;;0.90;;
13475;SDS011;6810;63.824;20.288;2023-04-09T15:15:32;1.40;;;0.80;;
13475;SDS011;6810;63.824;20.288;2023-04-09T15:18:00;1.30;;;1.00;;
13475;SDS011;6810;63.824;20.288;2023-04-09T15:20:35;1.37;;;0.90;;
13475;SDS011;6810;63.824;20.288;2023-04-09T15:23:03;2.40;;;0.80;;
13475;SDS011;6810;63.824;20.288;2023-04-09T15:25:30;1.77;;;0.90;;
13475;SDS011;6810;63.824;20.288;2023-04-09T15:27:58;1.03;;;0.80;;
13475;SDS011;6810;63.824;20.288;2023-04-09T15:30:25;1.30;;;0.80;;
13475;SDS011;6810;63.824;20.288;2023-04-09T15:32:55;2.83;;;0.80;;
13475;SDS011;6810;63.824;20.288;2023-04-09T15:35:23;2.63;;;0.90;;
13475;SDS011;6810;63.824;20.288;2023-04-09T15:37:52;1.53;;;0.77;;
13475;SDS011;6810;63.824;20.288;2023-04-09T15:40:19;1.53;;;0.90;;
13475;SDS011;6810;63.824;20.288;2023-04-09T15:42:46;1.50;;;0.87;;
13475;SDS011;6810;63.824;20.288;2023-04-09T15:45:13;1.03;;;0.70;;
13475;SDS011;6810;63.824;20.288;2023-04-09T15:47:42;0.97;;;0.70;;